CheckWX is a tool to help pilots better visualize weather data.  It is not intended as a substitute for an official pre-flight weather briefing.

02:58:45 UTC

KHNB METAR
Huntingburg Airport
Huntingburg, Indiana, USA
Current

1 hour ago

KHNB 230156Z AUTO 19007KT 10SM FEW070 26/16 A2998 RMK AO2 SLP147 T02560161
Observed
Sep-23 @ 01:56 UTC
Wind
  • 190° at 7 KTS
Visibility
10 SM
Flight Rules
VFR
Cloud Levels
  • Few at 7,000' AGL
Temperature
26°C / 79°F
Dewpoint
16°C / 61°F
Humidity
54%
Altimeter
29.98" Hg
Pressure
1015.22 hPa
Previous

2 hours ago

KHNB 230056Z AUTO 20007KT 10SM CLR 27/16 A2997 RMK AO2 SLP145 T02670161
Observed
Sep-23 @ 00:56 UTC
Wind
  • 200° at 7 KTS
Visibility
10 SM
Flight Rules
VFR
Cloud Levels
  • Clear skies
Temperature
27°C / 81°F
Dewpoint
16°C / 61°F
Heat Index
28°C / 82°F
Humidity
51%
Altimeter
29.97" Hg
Pressure
1014.92 hPa
Previous

3 hours ago

KHNB 222356Z AUTO 19006KT 10SM CLR 27/16 A2997 RMK AO2 SLP145 T02720161 10322 20272 55006
Observed
Sep-22 @ 23:56 UTC
Wind
  • 190° at 6 KTS
Visibility
10 SM
Flight Rules
VFR
Cloud Levels
  • Clear skies
Temperature
27°C / 81°F
Dewpoint
16°C / 61°F
Heat Index
28°C / 82°F
Humidity
51%
Altimeter
29.97" Hg
Pressure
1014.92 hPa